createdAt,value
2019-02-20T00:02:01.244Z,6.83
2019-02-20T00:04:30.433Z,6.78
2019-02-20T00:06:59.650Z,6.83
2019-02-20T00:09:28.951Z,6.85
2019-02-20T00:11:58.191Z,6.81
2019-02-20T00:14:27.460Z,6.84
2019-02-20T00:16:56.737Z,6.76
2019-02-20T00:19:26.057Z,6.76
2019-02-20T00:21:55.347Z,6.76
2019-02-20T00:24:24.617Z,6.80
2019-02-20T00:26:53.928Z,6.76
2019-02-20T00:29:23.251Z,6.76
2019-02-20T00:31:52.445Z,6.81
2019-02-20T00:34:21.666Z,6.80
2019-02-20T00:36:50.937Z,6.78
2019-02-20T00:39:20.155Z,6.84
2019-02-20T00:41:49.453Z,6.79
2019-02-20T00:44:40.690Z,6.80
2019-02-20T00:47:28.991Z,6.77
2019-02-20T00:49:58.207Z,6.72
2019-02-20T00:52:49.368Z,6.72
2019-02-20T00:55:10.224Z,6.75
2019-02-20T00:57:39.424Z,6.70
2019-02-20T01:00:09.747Z,6.71
2019-02-20T01:02:39.035Z,6.64
2019-02-20T01:05:08.265Z,6.68
2019-02-20T01:07:37.574Z,6.72
2019-02-20T01:10:07.438Z,6.65
2019-02-20T01:12:36.749Z,6.65
2019-02-20T01:15:06.179Z,6.65
2019-02-20T01:17:35.396Z,6.62
2019-02-20T01:20:04.943Z,6.62
2019-02-20T01:22:34.254Z,6.57
2019-02-20T01:25:03.559Z,6.54
2019-02-20T01:27:32.898Z,6.55
2019-02-20T01:30:02.107Z,6.55
2019-02-20T01:32:31.327Z,6.54
2019-02-20T01:35:00.559Z,6.51
2019-02-20T01:37:29.822Z,6.52
2019-02-20T01:39:59.061Z,6.54
2019-02-20T01:42:28.386Z,6.54
2019-02-20T01:44:57.585Z,6.54
2019-02-20T01:47:26.879Z,6.50
2019-02-20T01:49:56.264Z,6.42
2019-02-20T01:52:25.487Z,6.42
2019-02-20T01:54:54.763Z,6.42
2019-02-20T01:57:24.091Z,6.42
2019-02-20T01:59:53.289Z,6.35
2019-02-20T02:02:22.561Z,6.35
2019-02-20T02:04:51.769Z,6.40
2019-02-20T02:07:20.959Z,6.40
2019-02-20T02:09:50.298Z,6.38
2019-02-20T02:12:19.559Z,6.39
2019-02-20T02:14:48.830Z,6.38
2019-02-20T02:17:18.181Z,6.40
2019-02-20T02:19:47.389Z,6.34
2019-02-20T02:22:16.664Z,6.35
2019-02-20T02:24:45.927Z,6.33
2019-02-20T02:27:15.160Z,6.31
2019-02-20T02:29:44.399Z,6.24
2019-02-20T02:32:13.627Z,6.29
2019-02-20T02:34:42.905Z,6.36
2019-02-20T02:37:12.268Z,6.36
2019-02-20T02:39:41.596Z,6.34
2019-02-20T02:42:10.767Z,6.33
2019-02-20T02:44:40.073Z,6.26
2019-02-20T02:47:09.316Z,6.26
2019-02-20T02:49:38.559Z,6.28
2019-02-20T02:52:07.894Z,6.31
2019-02-20T02:54:37.182Z,6.33
2019-02-20T02:57:06.383Z,6.26
2019-02-20T02:59:35.590Z,6.26
2019-02-20T03:02:04.791Z,6.22
2019-02-20T03:04:34.025Z,6.24
2019-02-20T03:07:03.284Z,6.24
2019-02-20T03:09:32.463Z,6.25
2019-02-20T03:12:01.723Z,6.30
2019-02-20T03:14:30.982Z,6.32
2019-02-20T03:17:00.233Z,6.30
2019-02-20T03:19:29.427Z,6.25
2019-02-20T03:21:58.815Z,6.23
2019-02-20T03:24:28.086Z,6.23
2019-02-20T03:26:57.388Z,6.25
2019-02-20T03:29:26.611Z,6.15
2019-02-20T03:31:55.866Z,6.15
2019-02-20T03:34:25.206Z,6.21
2019-02-20T03:36:54.464Z,6.11
2019-02-20T03:39:23.696Z,6.11
2019-02-20T03:41:52.931Z,6.19
2019-02-20T03:44:22.194Z,6.18
2019-02-20T03:46:51.499Z,6.18
2019-02-20T03:49:20.692Z,6.18
2019-02-20T03:51:49.969Z,6.14
2019-02-20T03:54:19.325Z,6.14
2019-02-20T03:56:48.659Z,6.15
2019-02-20T03:59:18.001Z,6.10
2019-02-20T04:01:47.263Z,6.07
2019-02-20T04:04:16.475Z,5.98
2019-02-20T04:06:45.669Z,5.98
2019-02-20T04:09:14.967Z,5.98
2019-02-20T04:11:44.219Z,5.98
2019-02-20T04:14:13.471Z,6.01
2019-02-20T04:16:42.776Z,6.01
2019-02-20T04:19:12.062Z,5.97
2019-02-20T04:21:41.392Z,5.98
2019-02-20T04:24:10.592Z,5.90
2019-02-20T04:26:39.828Z,5.90
2019-02-20T04:29:09.037Z,5.89
2019-02-20T04:31:38.255Z,5.96
2019-02-20T04:34:07.575Z,5.94
2019-02-20T04:36:36.885Z,5.93
2019-02-20T04:39:06.910Z,5.97
2019-02-20T04:41:36.166Z,5.96
2019-02-20T04:44:05.436Z,5.92
2019-02-20T04:46:34.690Z,5.96
2019-02-20T04:49:03.907Z,6.05
2019-02-20T04:51:33.291Z,5.94
2019-02-20T04:54:02.511Z,5.94
2019-02-20T04:56:31.785Z,6.08
2019-02-20T04:59:01.325Z,5.93
2019-02-20T05:01:30.559Z,6.00
2019-02-20T05:03:59.932Z,6.03
2019-02-20T05:06:29.195Z,6.02
2019-02-20T05:08:58.418Z,6.01
2019-02-20T05:11:27.697Z,6.00
2019-02-20T05:13:57.036Z,6.00
2019-02-20T05:16:26.312Z,6.01
2019-02-20T05:18:55.615Z,6.01
2019-02-20T05:21:24.896Z,5.99
2019-02-20T05:23:54.200Z,5.99
2019-02-20T05:26:23.499Z,6.03
2019-02-20T05:28:52.752Z,6.02
2019-02-20T05:31:21.983Z,6.03
2019-02-20T05:33:51.292Z,6.06
2019-02-20T05:36:20.502Z,6.11
2019-02-20T05:38:49.863Z,6.13
2019-02-20T05:41:19.013Z,6.11
2019-02-20T05:43:48.208Z,6.10
2019-02-20T05:46:17.409Z,6.14
2019-02-20T05:48:46.678Z,6.14
2019-02-20T05:51:15.909Z,6.13
2019-02-20T05:53:45.144Z,6.09
2019-02-20T05:56:14.475Z,6.14
2019-02-20T05:58:43.686Z,6.17
2019-02-20T06:01:13.082Z,6.11
2019-02-20T06:03:42.407Z,6.11
2019-02-20T06:06:11.731Z,6.14
2019-02-20T06:08:40.989Z,6.14
2019-02-20T06:11:14.733Z,6.19
2019-02-20T06:13:39.603Z,6.06
2019-02-20T06:16:09.166Z,6.06
2019-02-20T06:18:38.536Z,6.15
2019-02-20T06:21:07.950Z,6.11
2019-02-20T06:23:37.194Z,6.23
2019-02-20T06:26:06.441Z,6.35
2019-02-20T06:28:35.734Z,6.28
2019-02-20T06:31:05.020Z,6.34
2019-02-20T06:33:34.257Z,6.31
2019-02-20T06:36:03.733Z,6.28
2019-02-20T06:38:32.976Z,6.32
2019-02-20T06:41:02.236Z,6.28
2019-02-20T06:43:31.498Z,6.22
2019-02-20T06:46:00.691Z,6.25
2019-02-20T06:48:29.924Z,6.25
2019-02-20T06:50:59.169Z,6.30
2019-02-20T06:53:28.466Z,6.24
2019-02-20T06:55:57.707Z,6.34
2019-02-20T06:58:26.949Z,6.34
2019-02-20T07:00:56.279Z,6.35
2019-02-20T07:03:25.511Z,6.31
2019-02-20T07:07:04.004Z,6.37
2019-02-20T07:10:22.117Z,6.37
2019-02-20T07:13:07.681Z,6.35
2019-02-20T07:16:01.578Z,6.37
2019-02-20T07:19:04.890Z,6.44
2019-02-20T07:22:16.479Z,6.51
2019-02-20T07:25:03.084Z,6.49
2019-02-20T07:27:41.561Z,6.45
2019-02-20T07:30:10.985Z,6.48
2019-02-20T07:32:40.249Z,6.53
2019-02-20T07:35:10.724Z,6.51
2019-02-20T07:37:47.249Z,6.47
2019-02-20T07:40:19.677Z,6.53
2019-02-20T07:42:48.917Z,6.56
2019-02-20T07:45:18.158Z,6.65
2019-02-20T07:47:47.523Z,6.65
2019-02-20T07:50:18.979Z,6.66
2019-02-20T07:52:49.333Z,6.61
2019-02-20T07:55:18.605Z,6.66
2019-02-20T07:57:47.850Z,6.74
2019-02-20T08:00:17.060Z,6.74
2019-02-20T08:02:46.343Z,6.77
2019-02-20T08:05:15.626Z,6.77
2019-02-20T08:07:44.855Z,6.79
2019-02-20T08:10:14.080Z,6.77
2019-02-20T08:12:52.563Z,6.72
2019-02-20T08:15:21.797Z,6.72
2019-02-20T08:17:51.289Z,6.64
2019-02-20T08:20:20.516Z,6.71
2019-02-20T08:22:49.737Z,6.71
2019-02-20T08:25:22.972Z,6.85
2019-02-20T08:27:48.288Z,7.04
2019-02-20T08:30:17.516Z,7.04
2019-02-20T08:32:46.796Z,7.20
2019-02-20T08:35:16.028Z,7.21
2019-02-20T08:37:45.432Z,7.26
2019-02-20T08:40:15.561Z,7.24
2019-02-20T08:42:45.011Z,7.31
2019-02-20T08:45:14.289Z,7.40
2019-02-20T08:47:43.547Z,7.30
2019-02-20T08:50:12.909Z,7.27
2019-02-20T08:52:42.157Z,7.25
2019-02-20T08:55:11.459Z,7.28
2019-02-20T08:57:40.733Z,7.26
2019-02-20T09:00:12.236Z,7.29
2019-02-20T09:02:44.408Z,7.44
2019-02-20T09:05:13.665Z,7.67
2019-02-20T09:07:43.015Z,7.69
2019-02-20T09:10:12.288Z,7.74
2019-02-20T09:12:41.500Z,7.89
2019-02-20T09:15:10.829Z,7.87
2019-02-20T09:17:40.061Z,7.09
2019-02-20T09:20:11.989Z,7.91
2019-02-20T09:22:41.255Z,8.04
2019-02-20T09:25:19.286Z,7.97
2019-02-20T09:27:39.913Z,8.03
2019-02-20T09:30:11.232Z,7.96
2019-02-20T09:32:40.455Z,7.98
2019-02-20T09:35:09.843Z,7.95
2019-02-20T09:37:39.218Z,7.98
2019-02-20T09:40:11.334Z,7.95
2019-02-20T09:42:41.597Z,8.11
2019-02-20T09:45:11.436Z,8.23
2019-02-20T09:47:40.658Z,8.43
2019-02-20T09:50:09.884Z,8.56
2019-02-20T09:52:39.307Z,8.61
2019-02-20T09:55:09.703Z,8.66
2019-02-20T09:57:39.229Z,8.81
2019-02-20T10:00:11.317Z,8.77
2019-02-20T10:02:40.589Z,8.97
2019-02-20T10:05:10.271Z,9.28
2019-02-20T10:07:39.509Z,9.33
2019-02-20T10:10:08.845Z,9.18
2019-02-20T10:12:38.136Z,9.20
2019-02-20T10:15:08.387Z,9.28
2019-02-20T10:17:37.707Z,9.38
2019-02-20T10:20:07.885Z,9.41
2019-02-20T10:22:37.125Z,9.55
2019-02-20T10:25:06.593Z,9.56
2019-02-20T10:27:35.828Z,9.69
2019-02-20T10:30:06.332Z,9.70
2019-02-20T10:32:35.553Z,9.88
2019-02-20T10:35:05.767Z,9.69
2019-02-20T10:37:35.093Z,9.89
2019-02-20T10:40:04.351Z,9.99
2019-02-20T10:42:33.617Z,10.19
2019-02-20T10:45:02.897Z,10.31
2019-02-20T10:47:32.220Z,10.28
2019-02-20T10:50:01.454Z,10.26
2019-02-20T10:52:30.709Z,10.35
2019-02-20T10:54:59.935Z,10.42
2019-02-20T10:57:29.273Z,10.38
2019-02-20T10:59:58.497Z,10.19
2019-02-20T11:02:27.768Z,10.12
2019-02-20T11:04:57.132Z,10.13
2019-02-20T11:07:29.092Z,10.22
2019-02-20T11:09:58.299Z,10.25
2019-02-20T11:12:27.635Z,10.39
2019-02-20T11:14:56.905Z,10.58
2019-02-20T11:17:26.124Z,10.57
2019-02-20T11:19:55.427Z,10.62
2019-02-20T11:22:24.681Z,10.66
2019-02-20T11:24:53.952Z,10.69
2019-02-20T11:27:23.171Z,10.84
2019-02-20T11:29:52.398Z,11.12
2019-02-20T11:32:21.639Z,11.17
2019-02-20T11:34:50.860Z,11.22
2019-02-20T11:37:20.165Z,11.44
2019-02-20T11:39:49.375Z,11.31
2019-02-20T11:42:18.634Z,11.34
2019-02-20T11:44:47.923Z,11.54
2019-02-20T11:47:17.229Z,11.60
2019-02-20T11:49:46.511Z,11.51
2019-02-20T11:52:15.785Z,11.40
2019-02-20T11:54:44.997Z,11.42
2019-02-20T11:57:14.393Z,11.46
2019-02-20T11:59:43.731Z,11.20
2019-02-20T12:02:12.993Z,10.90
2019-02-20T12:04:42.259Z,10.75
2019-02-20T12:07:11.464Z,10.51
2019-02-20T12:09:40.682Z,10.47
2019-02-20T12:12:09.961Z,10.58
2019-02-20T12:14:39.189Z,10.75
2019-02-20T12:17:08.432Z,10.88
2019-02-20T12:19:39.333Z,11.09
2019-02-20T12:22:06.967Z,11.41
2019-02-20T12:24:36.233Z,11.61
2019-02-20T12:27:05.623Z,11.80
2019-02-20T12:29:34.859Z,12.04
2019-02-20T12:32:04.114Z,12.00
2019-02-20T12:34:33.358Z,12.23
2019-02-20T12:37:02.612Z,12.58
2019-02-20T12:39:31.922Z,12.90
2019-02-20T12:42:01.245Z,12.94
2019-02-20T12:44:30.537Z,13.17
2019-02-20T12:46:59.859Z,12.85
2019-02-20T12:49:29.069Z,12.91
2019-02-20T12:52:00.084Z,12.91
2019-02-20T12:54:27.531Z,12.47
2019-02-20T12:56:56.827Z,12.40
2019-02-20T12:59:26.117Z,12.46
2019-02-20T13:01:55.365Z,12.40
2019-02-20T13:04:24.724Z,12.30
2019-02-20T13:06:59.551Z,12.00
2019-02-20T13:09:23.147Z,11.67
2019-02-20T13:11:52.641Z,11.63
2019-02-20T13:14:21.893Z,11.27
2019-02-20T13:16:51.107Z,11.37
2019-02-20T13:19:20.422Z,11.44
2019-02-20T13:21:49.679Z,11.50
2019-02-20T13:24:18.933Z,11.54
2019-02-20T13:26:52.850Z,11.40
2019-02-20T13:29:17.438Z,11.67
2019-02-20T13:31:46.735Z,11.84
2019-02-20T13:34:15.983Z,12.12
2019-02-20T13:36:45.254Z,12.15
2019-02-20T13:39:14.537Z,11.89
2019-02-20T13:41:44.554Z,11.97
2019-02-20T13:44:13.860Z,11.90
2019-02-20T13:46:43.143Z,11.77
2019-02-20T13:49:12.466Z,12.21
2019-02-20T13:51:41.713Z,12.48
2019-02-20T13:54:10.932Z,12.82
2019-02-20T13:56:40.456Z,12.96
2019-02-20T13:59:09.691Z,13.17
2019-02-20T14:01:39.249Z,13.13
2019-02-20T14:04:08.565Z,13.12
2019-02-20T14:06:37.876Z,13.04
2019-02-20T14:09:07.187Z,12.65
2019-02-20T14:11:36.444Z,12.43
2019-02-20T14:14:05.785Z,11.97
2019-02-20T14:16:35.003Z,12.07
2019-02-20T14:19:04.353Z,11.66
2019-02-20T14:21:33.670Z,11.62
2019-02-20T14:24:02.959Z,11.59
2019-02-20T14:26:32.191Z,11.48
2019-02-20T14:29:01.414Z,11.44
2019-02-20T14:31:30.658Z,11.27
2019-02-20T14:33:59.889Z,11.18
2019-02-20T14:36:29.109Z,11.15
2019-02-20T14:38:58.480Z,11.19
2019-02-20T14:41:27.995Z,11.20
2019-02-20T14:43:57.653Z,11.23
2019-02-20T14:46:26.892Z,11.41
2019-02-20T14:48:56.116Z,11.44
2019-02-20T14:51:27.583Z,11.28
2019-02-20T14:53:55.660Z,11.18
2019-02-20T14:56:25.029Z,11.04
2019-02-20T14:58:54.351Z,11.08
2019-02-20T15:01:23.611Z,10.70
2019-02-20T15:03:52.865Z,10.64
2019-02-20T15:06:22.231Z,10.58
2019-02-20T15:08:51.467Z,10.50
2019-02-20T15:11:20.803Z,10.44
2019-02-20T15:13:50.131Z,10.25
2019-02-20T15:16:19.418Z,10.28
2019-02-20T15:18:48.645Z,10.28
2019-02-20T15:21:17.933Z,10.25
2019-02-20T15:23:47.658Z,10.22
2019-02-20T15:26:16.875Z,10.10
2019-02-20T15:28:46.177Z,10.13
2019-02-20T15:31:21.310Z,10.13
2019-02-20T15:33:49.048Z,10.13
2019-02-20T15:36:18.352Z,10.09
2019-02-20T15:38:47.645Z,10.10
2019-02-20T15:41:16.881Z,10.09
2019-02-20T15:43:46.182Z,10.04
2019-02-20T15:46:15.453Z,10.01
2019-02-20T15:48:44.670Z,10.03
2019-02-20T15:51:13.936Z,9.84
2019-02-20T15:53:43.242Z,9.92
2019-02-20T15:56:12.472Z,9.93
2019-02-20T15:58:41.781Z,9.92
2019-02-20T16:01:11.594Z,9.90
2019-02-20T16:03:40.211Z,9.89
2019-02-20T16:06:09.563Z,9.86
2019-02-20T16:08:38.781Z,9.79
2019-02-20T16:11:08.138Z,9.80
2019-02-20T16:13:37.437Z,9.79
2019-02-20T16:16:06.797Z,9.76
2019-02-20T16:18:36.058Z,9.72
2019-02-20T16:21:08.371Z,9.73
2019-02-20T16:23:37.703Z,9.68
2019-02-20T16:26:07.038Z,9.61
2019-02-20T16:28:36.271Z,9.61
2019-02-20T16:31:05.521Z,9.63
2019-02-20T16:33:34.719Z,9.56
2019-02-20T16:36:04.008Z,9.59
2019-02-20T16:38:33.351Z,9.49
2019-02-20T16:41:04.619Z,9.48
2019-02-20T16:43:32.044Z,9.47
2019-02-20T16:46:01.337Z,9.45
2019-02-20T16:48:30.771Z,9.39
2019-02-20T16:51:00.153Z,9.33
2019-02-20T16:53:29.460Z,9.28
2019-02-20T16:55:58.866Z,9.32
2019-02-20T16:58:28.220Z,9.27
2019-02-20T17:00:57.474Z,9.24
2019-02-20T17:03:26.689Z,9.20
2019-02-20T17:05:55.922Z,9.08
2019-02-20T17:08:25.278Z,9.08
2019-02-20T17:10:54.692Z,9.11
2019-02-20T17:13:23.926Z,9.12
2019-02-20T17:15:53.181Z,9.07
2019-02-20T17:18:22.681Z,9.04
2019-02-20T17:20:51.991Z,9.02
2019-02-20T17:23:21.266Z,9.05
2019-02-20T17:25:50.635Z,9.01
2019-02-20T17:28:19.832Z,9.03
2019-02-20T17:30:55.136Z,9.03
2019-02-20T17:33:24.392Z,9.04
2019-02-20T17:35:53.700Z,8.99
2019-02-20T17:38:22.910Z,8.94
2019-02-20T17:40:52.156Z,8.89
2019-02-20T17:43:21.396Z,8.85
2019-02-20T17:45:50.797Z,8.85
2019-02-20T17:48:20.093Z,8.84
2019-02-20T17:50:49.481Z,8.80
2019-02-20T17:53:18.814Z,8.77
2019-02-20T17:55:48.188Z,8.75
2019-02-20T17:58:17.635Z,8.72
2019-02-20T18:00:46.887Z,8.69
2019-02-20T18:03:16.239Z,8.68
2019-02-20T18:05:49.767Z,8.66
2019-02-20T18:08:19.171Z,8.64
2019-02-20T18:10:48.503Z,8.59
2019-02-20T18:13:19.618Z,8.56
2019-02-20T18:15:46.992Z,8.52
2019-02-20T18:18:16.279Z,8.43
2019-02-20T18:20:45.576Z,8.43
2019-02-20T18:23:14.923Z,8.41
2019-02-20T18:25:44.242Z,8.40
2019-02-20T18:28:13.541Z,8.36
2019-02-20T18:30:43.022Z,8.36
2019-02-20T18:33:12.277Z,8.32
2019-02-20T18:35:41.738Z,8.29
2019-02-20T18:38:11.038Z,8.33
2019-02-20T18:40:40.336Z,8.35
2019-02-20T18:43:09.591Z,8.34
2019-02-20T18:45:38.944Z,8.37
2019-02-20T18:48:08.244Z,8.39
2019-02-20T18:50:37.511Z,8.37
2019-02-20T18:53:06.748Z,8.37
2019-02-20T18:55:36.002Z,8.36
2019-02-20T18:58:05.260Z,8.34
2019-02-20T19:00:34.604Z,8.34
2019-02-20T19:03:03.826Z,8.37
2019-02-20T19:05:33.856Z,8.40
2019-02-20T19:08:21.746Z,8.40
2019-02-20T19:10:57.038Z,8.39
2019-02-20T19:14:01.748Z,8.40
2019-02-20T19:17:00.445Z,8.43
2019-02-20T19:19:49.325Z,8.43
2019-02-20T19:22:41.587Z,8.45
2019-02-20T19:26:00.785Z,8.46
2019-02-20T19:29:06.143Z,8.45
2019-02-20T19:32:10.861Z,8.47
2019-02-20T19:35:16.088Z,8.46
2019-02-20T19:38:28.560Z,8.48
2019-02-20T19:41:51.526Z,8.47
2019-02-20T19:44:55.407Z,8.48
2019-02-20T19:47:54.739Z,8.46
2019-02-20T19:50:48.626Z,8.47
2019-02-20T19:53:36.124Z,8.46
2019-02-20T19:57:05.666Z,8.45
2019-02-20T20:00:19.550Z,8.50
2019-02-20T20:03:07.310Z,8.50
2019-02-20T20:06:09.754Z,8.48
2019-02-20T20:09:24.272Z,8.49
2019-02-20T20:12:41.490Z,8.47
2019-02-20T20:15:44.111Z,8.46
2019-02-20T20:18:42.784Z,8.44
2019-02-20T20:21:33.648Z,8.43
2019-02-20T20:24:42.583Z,8.41
2019-02-20T20:28:11.742Z,8.36
2019-02-20T20:31:21.119Z,8.36
2019-02-20T20:34:20.103Z,8.33
2019-02-20T20:37:26.489Z,8.30
2019-02-20T20:40:41.812Z,8.26
2019-02-20T20:43:47.134Z,8.11
2019-02-20T20:47:03.601Z,8.11
2019-02-20T20:49:55.728Z,8.09
2019-02-20T20:52:51.766Z,8.05
2019-02-20T20:55:57.647Z,7.95
2019-02-20T20:59:17.680Z,7.95
2019-02-20T21:02:01.671Z,7.93
2019-02-20T21:05:05.332Z,7.90
2019-02-20T21:08:08.580Z,7.88
2019-02-20T21:11:18.670Z,7.88
2019-02-20T21:14:28.962Z,7.98
2019-02-20T21:17:09.061Z,8.11
2019-02-20T21:20:06.596Z,8.19
2019-02-20T21:22:59.019Z,8.14
2019-02-20T21:25:56.636Z,7.99
2019-02-20T21:29:03.354Z,7.99
2019-02-20T21:32:03.361Z,7.98
2019-02-20T21:34:54.700Z,7.94
2019-02-20T21:37:37.641Z,7.90
2019-02-20T21:40:17.463Z,7.91
2019-02-20T21:43:11.770Z,7.86
2019-02-20T21:46:13.397Z,7.85
2019-02-20T21:49:03.428Z,7.81
2019-02-20T21:52:04.765Z,7.81
2019-02-20T21:54:59.991Z,7.78
2019-02-20T21:58:01.653Z,7.76
2019-02-20T22:00:46.291Z,7.76
2019-02-20T22:03:45.937Z,7.70
2019-02-20T22:07:03.345Z,7.89
2019-02-20T22:10:01.831Z,8.03
2019-02-20T22:13:07.144Z,7.94
2019-02-20T22:16:06.850Z,7.88
2019-02-20T22:19:04.227Z,7.80
2019-02-20T22:22:24.009Z,7.71
2019-02-20T22:25:43.790Z,7.63
2019-02-20T22:28:57.125Z,7.54
2019-02-20T22:31:53.295Z,7.46
2019-02-20T22:34:58.061Z,7.45
2019-02-20T22:37:46.823Z,7.39
2019-02-20T22:40:27.104Z,7.33
2019-02-20T22:43:38.325Z,7.26
2019-02-20T22:46:30.722Z,7.20
2019-02-20T22:49:40.332Z,7.20
2019-02-20T22:52:20.226Z,7.14
2019-02-20T22:55:26.231Z,7.12
2019-02-20T22:59:04.802Z,7.12
2019-02-20T23:02:00.350Z,7.12
2019-02-20T23:04:58.839Z,7.07
2019-02-20T23:08:08.278Z,7.10
2019-02-20T23:11:21.696Z,7.11
2019-02-20T23:14:32.965Z,7.17
2019-02-20T23:17:02.322Z,7.18
2019-02-20T23:19:31.710Z,7.21
2019-02-20T23:22:01.047Z,7.20
2019-02-20T23:24:30.427Z,7.20
2019-02-20T23:26:59.764Z,7.20
2019-02-20T23:29:29.199Z,7.17
2019-02-20T23:31:58.669Z,7.14
2019-02-20T23:34:27.939Z,7.17
2019-02-20T23:36:57.295Z,7.17
2019-02-20T23:39:26.677Z,7.21
2019-02-20T23:41:58.731Z,7.20
2019-02-20T23:44:28.179Z,7.15
2019-02-20T23:46:57.669Z,7.15
2019-02-20T23:49:27.024Z,7.24
2019-02-20T23:51:56.779Z,7.24
2019-02-20T23:54:26.179Z,7.22
2019-02-20T23:56:55.526Z,7.23
2019-02-20T23:59:25.542Z,7.23
